Matrincha, Brazil
Current Conditions -  °F | °C
As of 5:00 PM on Friday 28 Nov 2014 (Local Time) from SBAN Reporting Station
Light Rain Light Rain  
Wind Chill: 64°   Ceiling: 400
Heat Index: 64°   Visibility: 3mi
Dew Point: 63°   Wind: 6mph
Humidity: 94%   Direction: 330°NNW
Pressure: 30.06"   Gusts: NA
Location:  15.44°S, 50.75°W
Report Text: SBAN 281900Z 33005KT 5000 -RA BKN004 FEW025TCU OVC100 18/17 Q1018
Loading
Personal Weather Stations






























Interactive Weather Map New forecast layout! Learn more

10-Day Weather Forecast

Advertisements
Track Severe Weather on mobile